createdAt,value
2018-07-17T00:01:53.482Z,6.47
2018-07-17T00:04:22.513Z,6.03
2018-07-17T00:06:51.403Z,6.43
2018-07-17T00:09:20.491Z,5.30
2018-07-17T00:11:50.016Z,5.95
2018-07-17T00:14:20.207Z,5.60
2018-07-17T00:16:49.664Z,6.22
2018-07-17T00:19:18.741Z,6.07
2018-07-17T00:21:49.497Z,5.80
2018-07-17T00:24:20.472Z,5.73
2018-07-17T00:26:49.984Z,4.90
2018-07-17T00:29:19.065Z,6.47
2018-07-17T00:31:47.889Z,6.73
2018-07-17T00:34:16.424Z,5.60
2018-07-17T00:36:45.910Z,5.63
2018-07-17T00:39:14.445Z,6.27
2018-07-17T00:41:44.785Z,5.50
2018-07-17T00:44:13.328Z,6.23
2018-07-17T00:46:42.389Z,6.40
2018-07-17T00:49:11.584Z,5.67
2018-07-17T00:51:40.278Z,6.30
2018-07-17T00:54:08.841Z,6.60
2018-07-17T00:56:37.372Z,6.33
2018-07-17T00:59:05.944Z,6.60
2018-07-17T01:01:39.837Z,6.83
2018-07-17T01:04:13.505Z,6.50
2018-07-17T01:06:47.284Z,6.83
2018-07-17T01:09:21.369Z,6.50
2018-07-17T01:11:55.302Z,7.65
2018-07-17T01:14:31.609Z,6.93
2018-07-17T01:17:00.190Z,8.10
2018-07-17T01:19:28.753Z,8.15
2018-07-17T01:21:58.319Z,7.97
2018-07-17T01:24:26.864Z,8.45
2018-07-17T01:26:55.438Z,8.57
2018-07-17T01:29:24.013Z,8.63
2018-07-17T01:31:52.600Z,8.60
2018-07-17T01:34:21.164Z,8.00
2018-07-17T01:36:50.312Z,8.63
2018-07-17T01:39:19.185Z,8.30
2018-07-17T01:41:47.761Z,9.00
2018-07-17T01:44:17.346Z,9.23
2018-07-17T01:46:47.243Z,8.97
2018-07-17T01:49:16.249Z,8.90
2018-07-17T01:51:44.837Z,8.93
2018-07-17T01:54:13.433Z,10.07
2018-07-17T01:56:42.017Z,9.00
2018-07-17T01:59:10.560Z,9.30
2018-07-17T02:01:39.576Z,9.20
2018-07-17T02:04:08.463Z,9.30
2018-07-17T02:06:37.224Z,8.43
2018-07-17T02:09:06.784Z,9.00
2018-07-17T02:11:35.602Z,9.55
2018-07-17T02:14:04.253Z,9.75
2018-07-17T02:16:32.937Z,8.43
2018-07-17T02:19:01.757Z,9.40
2018-07-17T02:21:30.332Z,9.35
2018-07-17T02:23:58.880Z,8.87
2018-07-17T02:26:27.473Z,9.00
2018-07-17T02:28:56.471Z,9.55
2018-07-17T02:31:25.059Z,9.85
2018-07-17T02:33:53.764Z,9.23
2018-07-17T02:36:22.684Z,9.43
2018-07-17T02:38:51.296Z,9.07
2018-07-17T02:41:20.514Z,9.40
2018-07-17T02:43:49.305Z,9.47
2018-07-17T02:46:18.313Z,8.70
2018-07-17T02:48:47.476Z,8.60
2018-07-17T02:51:16.013Z,8.47
2018-07-17T02:53:44.608Z,8.30
2018-07-17T02:56:13.169Z,8.60
2018-07-17T02:58:41.741Z,9.23
2018-07-17T03:01:10.302Z,10.33
2018-07-17T03:03:38.886Z,9.67
2018-07-17T03:06:07.457Z,9.48
2018-07-17T03:08:36.085Z,9.53
2018-07-17T03:11:04.633Z,9.10
2018-07-17T03:13:33.223Z,9.27
2018-07-17T03:16:01.824Z,9.93
2018-07-17T03:18:30.804Z,9.33
2018-07-17T03:20:59.357Z,9.77
2018-07-17T03:23:27.934Z,9.33
2018-07-17T03:25:56.492Z,8.70
2018-07-17T03:28:25.208Z,10.87
2018-07-17T03:30:53.785Z,9.87
2018-07-17T03:33:22.391Z,9.73
2018-07-17T03:35:50.988Z,9.80
2018-07-17T03:38:19.625Z,9.23
2018-07-17T03:40:48.216Z,9.60
2018-07-17T03:43:17.570Z,9.07
2018-07-17T03:45:46.193Z,9.37
2018-07-17T03:48:14.797Z,11.53
2018-07-17T03:50:43.365Z,10.03
2018-07-17T03:53:12.061Z,9.07
2018-07-17T03:55:40.627Z,9.63
2018-07-17T03:58:09.192Z,9.17
2018-07-17T04:00:37.940Z,9.97
2018-07-17T04:03:06.537Z,10.45
2018-07-17T04:05:35.075Z,9.70
2018-07-17T04:08:03.636Z,9.88
2018-07-17T04:10:32.180Z,9.80
2018-07-17T04:13:00.751Z,9.80
2018-07-17T04:15:29.286Z,9.10
2018-07-17T04:17:57.820Z,12.07
2018-07-17T04:20:26.385Z,9.43
2018-07-17T04:22:55.069Z,9.30
2018-07-17T04:25:23.643Z,9.73
2018-07-17T04:27:52.156Z,9.37
2018-07-17T04:30:20.981Z,9.13
2018-07-17T04:32:49.513Z,8.90
2018-07-17T04:35:22.154Z,8.93
2018-07-17T04:37:50.926Z,9.20
2018-07-17T04:40:19.501Z,10.60
2018-07-17T04:42:48.041Z,8.83
2018-07-17T04:45:18.332Z,9.40
2018-07-17T04:47:46.852Z,9.50
2018-07-17T04:50:15.444Z,9.43
2018-07-17T04:52:43.989Z,9.80
2018-07-17T04:55:12.646Z,9.27
2018-07-17T04:57:41.173Z,10.20
2018-07-17T05:00:09.756Z,9.07
2018-07-17T05:02:38.300Z,10.32
2018-07-17T05:05:06.952Z,9.33
2018-07-17T05:07:35.476Z,10.47
2018-07-17T05:10:04.138Z,10.40
2018-07-17T05:12:32.784Z,11.33
2018-07-17T05:15:01.357Z,11.48
2018-07-17T05:17:29.900Z,11.20
2018-07-17T05:19:58.475Z,10.13
2018-07-17T05:22:27.024Z,12.10
2018-07-17T05:24:55.593Z,10.38
2018-07-17T05:27:24.772Z,9.50
2018-07-17T05:29:53.377Z,10.93
2018-07-17T05:32:22.301Z,9.93
2018-07-17T05:34:50.940Z,9.43
2018-07-17T05:37:19.545Z,10.00
2018-07-17T05:39:48.127Z,9.60
2018-07-17T05:42:16.696Z,9.30
2018-07-17T05:44:45.326Z,9.03
2018-07-17T05:47:13.884Z,9.03
2018-07-17T05:49:42.472Z,10.10
2018-07-17T05:52:11.116Z,10.47
2018-07-17T05:54:39.726Z,9.17
2018-07-17T05:57:08.404Z,10.03
2018-07-17T05:59:36.992Z,10.10
2018-07-17T06:02:05.641Z,9.27
2018-07-17T06:04:34.249Z,9.00
2018-07-17T06:07:02.837Z,8.70
2018-07-17T06:09:31.445Z,9.30
2018-07-17T06:12:00.011Z,8.67
2018-07-17T06:14:28.926Z,9.05
2018-07-17T06:16:57.493Z,8.73
2018-07-17T06:19:26.053Z,9.33
2018-07-17T06:21:54.667Z,9.40
2018-07-17T06:24:23.215Z,8.80
2018-07-17T06:26:52.777Z,10.63
2018-07-17T06:29:21.401Z,8.67
2018-07-17T06:31:49.993Z,9.00
2018-07-17T06:34:18.550Z,8.53
2018-07-17T06:36:47.160Z,8.83
2018-07-17T06:39:15.692Z,9.17
2018-07-17T06:41:44.306Z,8.47
2018-07-17T06:44:13.041Z,9.63
2018-07-17T06:46:41.642Z,9.33
2018-07-17T06:49:10.204Z,21.20
2018-07-17T06:51:38.833Z,12.77
2018-07-17T06:54:07.396Z,15.03
2018-07-17T06:56:35.997Z,13.93
2018-07-17T06:59:04.555Z,11.70
2018-07-17T07:01:33.188Z,11.63
2018-07-17T07:04:02.873Z,19.80
2018-07-17T07:06:31.528Z,16.03
2018-07-17T07:09:00.077Z,12.40
2018-07-17T07:11:28.661Z,20.50
2018-07-17T07:13:57.232Z,23.63
2018-07-17T07:16:25.823Z,20.90
2018-07-17T07:18:54.806Z,17.90
2018-07-17T07:21:23.449Z,23.40
2018-07-17T07:23:52.918Z,22.90
2018-07-17T07:26:21.866Z,29.47
2018-07-17T07:28:50.432Z,19.30
2018-07-17T07:31:19.025Z,24.67
2018-07-17T07:33:47.585Z,25.10
2018-07-17T07:36:16.181Z,32.60
2018-07-17T07:38:44.707Z,26.63
2018-07-17T07:41:13.305Z,29.03
2018-07-17T07:43:41.867Z,24.20
2018-07-17T07:46:10.469Z,35.30
2018-07-17T07:48:39.045Z,24.67
2018-07-17T07:51:07.630Z,34.97
2018-07-17T07:53:36.193Z,33.87
2018-07-17T07:56:04.800Z,42.17
2018-07-17T07:58:33.335Z,43.10
2018-07-17T08:01:01.900Z,49.00
2018-07-17T08:03:30.489Z,26.13
2018-07-17T08:05:59.037Z,27.93
2018-07-17T08:08:27.596Z,28.37
2018-07-17T08:10:56.201Z,42.03
2018-07-17T08:13:24.742Z,41.20
2018-07-17T08:15:54.084Z,13.25
2018-07-17T08:18:22.653Z,15.73
2018-07-17T08:20:51.201Z,12.00
2018-07-17T08:23:19.856Z,11.07
2018-07-17T08:25:48.385Z,12.97
2018-07-17T08:28:16.972Z,10.30
2018-07-17T08:30:45.502Z,11.27
2018-07-17T08:33:14.080Z,9.87
2018-07-17T08:35:42.725Z,8.50
2018-07-17T08:38:11.594Z,8.80
2018-07-17T08:40:46.680Z,7.10
2018-07-17T08:43:15.421Z,6.83
2018-07-17T08:45:43.953Z,5.73
2018-07-17T08:48:12.546Z,5.13
2018-07-17T08:50:41.436Z,7.83
2018-07-17T08:53:10.021Z,3.93
2018-07-17T08:55:38.629Z,4.10
2018-07-17T08:58:07.211Z,4.17
2018-07-17T09:00:35.812Z,4.27
2018-07-17T09:03:05.214Z,3.80
2018-07-17T09:05:34.702Z,7.23
2018-07-17T09:08:03.441Z,5.43
2018-07-17T09:10:32.017Z,9.27
2018-07-17T09:13:00.627Z,3.20
2018-07-17T09:15:29.183Z,4.53
2018-07-17T09:18:04.678Z,3.67
2018-07-17T09:20:37.183Z,3.10
2018-07-17T09:23:07.041Z,2.97
2018-07-17T09:25:36.861Z,3.10
2018-07-17T09:28:07.324Z,3.20
2018-07-17T09:30:45.212Z,6.95
2018-07-17T09:33:16.078Z,2.90
2018-07-17T09:35:45.268Z,2.67
2018-07-17T09:38:19.973Z,2.60
2018-07-17T09:40:55.031Z,3.17
2018-07-17T09:43:24.505Z,3.90
2018-07-17T09:45:55.351Z,2.70
2018-07-17T09:48:25.636Z,5.17
2018-07-17T09:50:54.896Z,5.30
2018-07-17T09:53:24.546Z,5.25
2018-07-17T09:55:53.081Z,10.13
2018-07-17T09:58:22.682Z,2.93
2018-07-17T10:00:56.562Z,5.60
2018-07-17T10:03:25.168Z,3.87
2018-07-17T10:05:54.505Z,3.23
2018-07-17T10:08:23.158Z,2.73
2018-07-17T10:11:03.003Z,2.53
2018-07-17T10:13:35.157Z,2.60
2018-07-17T10:16:07.207Z,2.70
2018-07-17T10:18:36.582Z,2.30
2018-07-17T10:21:06.341Z,4.05
2018-07-17T10:23:35.450Z,4.90
2018-07-17T10:26:05.684Z,3.30
2018-07-17T10:28:37.639Z,2.67
2018-07-17T10:31:06.168Z,3.63
2018-07-17T10:33:41.193Z,3.77
2018-07-17T10:36:10.759Z,2.60
2018-07-17T10:38:40.953Z,2.80
2018-07-17T10:41:10.383Z,5.17
2018-07-17T10:43:40.850Z,2.73
2018-07-17T10:46:12.361Z,3.17
2018-07-17T10:48:46.052Z,2.65
2018-07-17T10:51:16.348Z,6.07
2018-07-17T10:53:49.129Z,4.77
2018-07-17T10:56:21.891Z,3.30
2018-07-17T10:58:51.189Z,3.27
2018-07-17T11:01:21.569Z,5.67
2018-07-17T11:03:58.397Z,4.40
2018-07-17T11:06:30.758Z,3.15
2018-07-17T11:09:03.003Z,2.83
2018-07-17T11:11:34.079Z,3.22
2018-07-17T11:14:11.373Z,2.87
2018-07-17T11:16:43.587Z,3.43
2018-07-17T11:19:14.626Z,3.80
2018-07-17T11:21:46.261Z,2.90
2018-07-17T11:24:15.776Z,3.67
2018-07-17T11:26:46.440Z,4.27
2018-07-17T11:29:17.508Z,3.53
2018-07-17T11:31:47.629Z,4.60
2018-07-17T11:34:16.297Z,2.87
2018-07-17T11:36:50.464Z,3.40
2018-07-17T11:39:24.047Z,7.80
2018-07-17T11:41:56.741Z,3.23
2018-07-17T11:44:26.887Z,5.90
2018-07-17T11:46:57.694Z,3.03
2018-07-17T11:49:27.942Z,3.10
2018-07-17T11:51:58.166Z,3.50
2018-07-17T11:54:26.884Z,4.27
2018-07-17T11:56:55.436Z,4.03
2018-07-17T11:59:24.166Z,4.00
2018-07-17T12:01:52.620Z,5.27
2018-07-17T12:04:21.266Z,13.77
2018-07-17T12:06:49.819Z,6.83
2018-07-17T12:09:18.854Z,9.00
2018-07-17T12:11:47.721Z,7.17
2018-07-17T12:14:18.364Z,9.53
2018-07-17T12:16:46.913Z,13.40
2018-07-17T12:19:15.508Z,8.20
2018-07-17T12:21:45.801Z,6.90
2018-07-17T12:24:15.908Z,7.30
2018-07-17T12:26:44.628Z,4.57
2018-07-17T12:29:14.047Z,6.37
2018-07-17T12:31:42.828Z,5.53
2018-07-17T12:34:11.379Z,5.07
2018-07-17T12:36:40.370Z,5.70
2018-07-17T12:39:11.852Z,3.87
2018-07-17T12:41:42.984Z,3.87
2018-07-17T12:44:13.308Z,3.20
2018-07-17T12:46:42.034Z,5.37
2018-07-17T12:49:10.574Z,9.60
2018-07-17T12:51:39.138Z,5.53
2018-07-17T12:54:09.446Z,3.63
2018-07-17T12:56:38.088Z,4.07
2018-07-17T12:59:06.668Z,4.47
2018-07-17T13:01:35.287Z,4.12
2018-07-17T13:04:03.805Z,3.73
2018-07-17T13:06:32.709Z,3.57
2018-07-17T13:09:01.252Z,3.60
2018-07-17T13:11:30.082Z,3.03
2018-07-17T13:13:58.611Z,3.90
2018-07-17T13:16:27.205Z,4.00
2018-07-17T13:18:57.893Z,4.03
2018-07-17T13:21:26.480Z,6.40
2018-07-17T13:23:55.141Z,6.23
2018-07-17T13:26:23.765Z,6.50
2018-07-17T13:28:52.511Z,3.37
2018-07-17T13:31:21.085Z,4.43
2018-07-17T13:33:53.005Z,4.50
2018-07-17T13:36:21.640Z,3.07
2018-07-17T13:38:51.217Z,7.70
2018-07-17T13:41:19.838Z,3.30
2018-07-17T13:43:48.456Z,3.20
2018-07-17T13:46:17.974Z,3.10
2018-07-17T13:48:46.578Z,5.00
2018-07-17T13:51:15.142Z,3.37
2018-07-17T13:53:44.181Z,3.13
2018-07-17T13:56:12.781Z,3.73
2018-07-17T13:58:41.337Z,5.67
2018-07-17T14:01:09.896Z,3.43
2018-07-17T14:03:38.462Z,4.08
2018-07-17T14:06:07.052Z,3.30
2018-07-17T14:08:35.825Z,4.60
2018-07-17T14:11:04.384Z,3.60
2018-07-17T14:13:33.268Z,3.50
2018-07-17T14:16:01.829Z,3.57
2018-07-17T14:18:31.303Z,6.05
2018-07-17T14:20:59.907Z,3.17
2018-07-17T14:23:28.432Z,4.77
2018-07-17T14:25:57.100Z,4.77
2018-07-17T14:28:25.680Z,3.30
2018-07-17T14:30:54.249Z,2.90
2018-07-17T14:33:24.454Z,3.37
2018-07-17T14:35:55.137Z,3.37
2018-07-17T14:38:23.724Z,3.57
2018-07-17T14:40:52.307Z,5.63
2018-07-17T14:43:21.192Z,3.40
2018-07-17T14:45:50.848Z,4.27
2018-07-17T14:48:19.453Z,7.20
2018-07-17T14:50:48.056Z,3.30
2018-07-17T14:53:16.927Z,4.03
2018-07-17T14:55:45.480Z,3.73
2018-07-17T14:58:14.066Z,3.57
2018-07-17T15:00:42.650Z,3.77
2018-07-17T15:03:11.233Z,3.30
2018-07-17T15:05:39.776Z,3.77
2018-07-17T15:08:08.357Z,4.50
2018-07-17T15:10:37.058Z,3.57
2018-07-17T15:13:05.652Z,5.40
2018-07-17T15:15:34.212Z,3.73
2018-07-17T15:18:02.818Z,3.40
2018-07-17T15:20:32.251Z,4.12
2018-07-17T15:23:00.822Z,3.33
2018-07-17T15:25:29.366Z,3.30
2018-07-17T15:27:58.047Z,4.10
2018-07-17T15:30:26.659Z,3.40
2018-07-17T15:32:55.231Z,4.67
2018-07-17T15:35:24.309Z,3.70
2018-07-17T15:37:52.896Z,4.03
2018-07-17T15:40:22.265Z,3.63
2018-07-17T15:42:51.001Z,3.47
2018-07-17T15:45:19.828Z,3.90
2018-07-17T15:47:49.366Z,3.63
2018-07-17T15:50:18.034Z,5.60
2018-07-17T15:52:47.440Z,3.57
2018-07-17T15:55:16.104Z,3.70
2018-07-17T15:57:44.700Z,6.00
2018-07-17T16:00:13.608Z,3.60
2018-07-17T16:02:47.980Z,3.40
2018-07-17T16:05:20.549Z,3.80
2018-07-17T16:07:49.216Z,3.40
2018-07-17T16:10:17.820Z,3.40
2018-07-17T16:12:47.793Z,3.00
2018-07-17T16:15:17.859Z,5.22
2018-07-17T16:17:47.285Z,3.77
2018-07-17T16:20:16.527Z,5.20
2018-07-17T16:22:49.490Z,3.03
2018-07-17T16:25:18.127Z,3.00
2018-07-17T16:27:46.728Z,3.00
2018-07-17T16:30:15.292Z,3.45
2018-07-17T16:32:43.892Z,3.40
2018-07-17T16:35:12.452Z,4.73
2018-07-17T16:37:47.705Z,5.30
2018-07-17T16:40:16.240Z,3.30
2018-07-17T16:42:44.826Z,5.40
2018-07-17T16:45:13.377Z,3.90
2018-07-17T16:47:41.929Z,3.37
2018-07-17T16:50:10.514Z,3.50
2018-07-17T16:52:39.077Z,3.00
2018-07-17T16:55:07.649Z,3.43
2018-07-17T16:57:36.201Z,2.90
2018-07-17T17:00:05.160Z,3.13
2018-07-17T17:02:33.696Z,3.10
2018-07-17T17:05:02.550Z,3.20
2018-07-17T17:07:31.089Z,6.40
2018-07-17T17:09:59.660Z,4.10
2018-07-17T17:12:28.177Z,4.30
2018-07-17T17:14:56.789Z,3.20
2018-07-17T17:17:25.315Z,3.13
2018-07-17T17:19:54.164Z,2.70
2018-07-17T17:22:23.012Z,3.67
2018-07-17T17:24:51.630Z,3.20
2018-07-17T17:27:20.160Z,3.27
2018-07-17T17:29:48.721Z,2.95
2018-07-17T17:32:17.265Z,2.90
2018-07-17T17:34:45.864Z,3.85
2018-07-17T17:37:14.478Z,3.80
2018-07-17T17:39:46.636Z,5.63
2018-07-17T17:42:16.669Z,2.90
2018-07-17T17:44:45.324Z,4.40
2018-07-17T17:47:15.916Z,2.83
2018-07-17T17:49:44.493Z,3.45
2018-07-17T17:52:13.049Z,3.23
2018-07-17T17:54:42.032Z,3.23
2018-07-17T17:57:10.638Z,4.30
2018-07-17T17:59:39.211Z,4.00
2018-07-17T18:02:07.774Z,4.37
2018-07-17T18:04:36.353Z,5.57
2018-07-17T18:07:04.945Z,4.20
2018-07-17T18:09:33.516Z,4.17
2018-07-17T18:12:02.084Z,3.40
2018-07-17T18:14:31.215Z,7.20
2018-07-17T18:17:00.609Z,4.83
2018-07-17T18:19:29.197Z,383.90
2018-07-17T18:21:59.952Z,330.50
2018-07-17T18:24:46.329Z,312.47
2018-07-17T18:27:25.910Z,248.07
2018-07-17T18:30:12.823Z,46.40
2018-07-17T18:32:41.916Z,16.03
2018-07-17T18:35:10.528Z,5.00
2018-07-17T18:37:39.081Z,5.47
2018-07-17T18:40:07.673Z,5.17
2018-07-17T18:42:37.263Z,5.47
2018-07-17T18:45:05.828Z,4.07
2018-07-17T18:47:35.212Z,4.20
2018-07-17T18:50:12.589Z,3.70
2018-07-17T18:52:32.565Z,3.13
2018-07-17T18:55:01.893Z,3.73
2018-07-17T18:57:30.647Z,3.20
2018-07-17T18:59:59.296Z,3.77
2018-07-17T19:02:28.207Z,3.47
2018-07-17T19:04:57.627Z,4.07
2018-07-17T19:07:26.177Z,3.07
2018-07-17T19:09:56.493Z,5.17
2018-07-17T19:12:32.162Z,4.40
2018-07-17T19:15:03.929Z,4.17
2018-07-17T19:17:36.059Z,3.03
2018-07-17T19:20:05.769Z,3.13
2018-07-17T19:22:36.733Z,2.97
2018-07-17T19:25:05.345Z,3.10
2018-07-17T19:27:34.462Z,3.60
2018-07-17T19:30:18.528Z,5.10
2018-07-17T19:32:56.839Z,3.45
2018-07-17T19:35:36.664Z,4.37
2018-07-17T19:38:14.607Z,3.83
2018-07-17T19:40:56.749Z,4.30
2018-07-17T19:43:34.995Z,4.40
2018-07-17T19:46:03.805Z,3.97
2018-07-17T19:48:32.349Z,4.07
2018-07-17T19:51:01.988Z,3.07
2018-07-17T19:53:30.541Z,3.67
2018-07-17T19:55:59.124Z,3.63
2018-07-17T19:58:27.677Z,5.13
2018-07-17T20:00:56.288Z,4.00
2018-07-17T20:03:25.437Z,3.73
2018-07-17T20:05:54.016Z,3.80
2018-07-17T20:08:22.608Z,3.87
2018-07-17T20:10:51.371Z,8.73
2018-07-17T20:13:19.920Z,7.50
2018-07-17T20:15:48.941Z,6.90
2018-07-17T20:18:17.545Z,6.70
2018-07-17T20:20:46.133Z,7.30
2018-07-17T20:23:14.693Z,6.63
2018-07-17T20:25:43.289Z,6.10
2018-07-17T20:28:12.877Z,7.70
2018-07-17T20:30:41.469Z,7.47
2018-07-17T20:33:10.056Z,5.63
2018-07-17T20:35:38.628Z,5.77
2018-07-17T20:38:09.673Z,5.47
2018-07-17T20:40:38.237Z,5.13
2018-07-17T20:43:07.513Z,5.10
2018-07-17T20:45:36.341Z,12.97
2018-07-17T20:48:05.822Z,4.60
2018-07-17T20:50:36.063Z,8.43
2018-07-17T20:53:06.487Z,3.90
2018-07-17T20:55:39.043Z,5.07
2018-07-17T20:58:10.545Z,6.17
2018-07-17T21:00:39.872Z,5.07
2018-07-17T21:03:08.980Z,6.83
2018-07-17T21:05:37.717Z,4.20
2018-07-17T21:08:07.790Z,6.10
2018-07-17T21:10:37.832Z,4.77
2018-07-17T21:13:07.783Z,17.82
2018-07-17T21:15:37.676Z,19.37
2018-07-17T21:18:06.295Z,16.03
2018-07-17T21:20:40.818Z,12.97
2018-07-17T21:23:09.589Z,10.23
2018-07-17T21:25:38.132Z,5.17
2018-07-17T21:28:07.511Z,5.30
2018-07-17T21:30:36.064Z,4.50
2018-07-17T21:33:04.941Z,7.93
2018-07-17T21:35:33.517Z,4.00
2018-07-17T21:38:02.141Z,5.77
2018-07-17T21:40:30.701Z,6.80
2018-07-17T21:42:59.273Z,5.10
2018-07-17T21:45:27.900Z,4.70
2018-07-17T21:47:56.510Z,5.20
2018-07-17T21:50:25.056Z,4.93
2018-07-17T21:52:55.918Z,4.65
2018-07-17T21:55:24.596Z,17.35
2018-07-17T21:57:53.254Z,14.70
2018-07-17T22:00:21.841Z,30.07
2018-07-17T22:02:50.433Z,25.27
2018-07-17T22:05:19.012Z,15.37
2018-07-17T22:07:47.588Z,17.00
2018-07-17T22:10:16.684Z,15.47
2018-07-17T22:12:46.707Z,25.00
2018-07-17T22:15:17.418Z,12.20
2018-07-17T22:17:48.352Z,7.17
2018-07-17T22:20:18.185Z,5.80
2018-07-17T22:22:50.796Z,7.30
2018-07-17T22:25:21.453Z,6.25
2018-07-17T22:27:52.443Z,10.73
2018-07-17T22:30:23.489Z,8.07
2018-07-17T22:32:53.542Z,12.60
2018-07-17T22:35:25.745Z,9.47
2018-07-17T22:37:57.807Z,6.00
2018-07-17T22:40:29.544Z,7.10
2018-07-17T22:43:04.465Z,6.67
2018-07-17T22:45:35.617Z,5.90
2018-07-17T22:48:05.452Z,5.60
2018-07-17T22:50:38.727Z,5.80
2018-07-17T22:53:08.149Z,4.60
2018-07-17T22:55:39.548Z,5.53
2018-07-17T22:58:20.117Z,6.20
2018-07-17T23:00:52.339Z,6.15
2018-07-17T23:03:27.647Z,6.17
2018-07-17T23:05:59.816Z,5.78
2018-07-17T23:08:30.922Z,6.33
2018-07-17T23:11:01.361Z,5.70
2018-07-17T23:13:31.548Z,6.60
2018-07-17T23:16:01.865Z,6.57
2018-07-17T23:18:33.757Z,5.93
2018-07-17T23:21:04.685Z,6.87
2018-07-17T23:23:40.561Z,6.47
2018-07-17T23:26:13.235Z,5.83
2018-07-17T23:28:46.547Z,5.50
2018-07-17T23:31:15.737Z,6.72
2018-07-17T23:33:48.179Z,5.42
2018-07-17T23:36:21.168Z,4.20
2018-07-17T23:38:52.846Z,5.17
2018-07-17T23:41:27.314Z,4.73
2018-07-17T23:43:58.193Z,4.57
2018-07-17T23:46:32.612Z,5.03
2018-07-17T23:49:05.929Z,4.53
2018-07-17T23:51:38.659Z,4.77
2018-07-17T23:54:11.030Z,6.10
2018-07-17T23:56:45.307Z,5.30
2018-07-17T23:59:16.276Z,5.33
